sensor_id;sensor_type;location;lat;lon;timestamp;P1;durP1;ratioP1;P2;durP2;ratioP2
13327;SDS011;6733;51.044;3.746;2023-07-31T00:00:43;14.97;;;7.73;;
13327;SDS011;6733;51.044;3.746;2023-07-31T00:03:11;16.27;;;7.13;;
13327;SDS011;6733;51.044;3.746;2023-07-31T00:05:38;15.07;;;6.83;;
13327;SDS011;6733;51.044;3.746;2023-07-31T00:08:04;20.20;;;7.90;;
13327;SDS011;6733;51.044;3.746;2023-07-31T00:10:30;12.47;;;7.13;;
13327;SDS011;6733;51.044;3.746;2023-07-31T00:12:56;12.10;;;6.77;;
13327;SDS011;6733;51.044;3.746;2023-07-31T00:15:22;16.93;;;7.27;;
13327;SDS011;6733;51.044;3.746;2023-07-31T00:17:48;13.37;;;6.80;;
13327;SDS011;6733;51.044;3.746;2023-07-31T00:20:14;21.77;;;7.70;;
13327;SDS011;6733;51.044;3.746;2023-07-31T00:22:41;12.67;;;6.10;;
13327;SDS011;6733;51.044;3.746;2023-07-31T00:25:07;15.53;;;6.97;;
13327;SDS011;6733;51.044;3.746;2023-07-31T00:27:33;15.23;;;7.40;;
13327;SDS011;6733;51.044;3.746;2023-07-31T00:29:59;18.67;;;7.27;;
13327;SDS011;6733;51.044;3.746;2023-07-31T00:32:26;18.73;;;7.43;;
13327;SDS011;6733;51.044;3.746;2023-07-31T00:34:52;13.37;;;6.87;;
13327;SDS011;6733;51.044;3.746;2023-07-31T00:37:18;13.90;;;6.73;;
13327;SDS011;6733;51.044;3.746;2023-07-31T00:39:44;14.53;;;6.53;;
13327;SDS011;6733;51.044;3.746;2023-07-31T00:42:10;13.70;;;7.13;;
13327;SDS011;6733;51.044;3.746;2023-07-31T00:44:36;12.80;;;6.53;;
13327;SDS011;6733;51.044;3.746;2023-07-31T00:47:02;14.47;;;6.63;;
13327;SDS011;6733;51.044;3.746;2023-07-31T00:49:29;14.93;;;6.87;;
13327;SDS011;6733;51.044;3.746;2023-07-31T00:51:55;14.97;;;6.93;;
13327;SDS011;6733;51.044;3.746;2023-07-31T00:54:23;18.53;;;7.50;;
13327;SDS011;6733;51.044;3.746;2023-07-31T00:56:49;17.40;;;7.07;;
13327;SDS011;6733;51.044;3.746;2023-07-31T00:59:18;13.00;;;7.00;;
13327;SDS011;6733;51.044;3.746;2023-07-31T01:01:44;20.50;;;7.53;;
13327;SDS011;6733;51.044;3.746;2023-07-31T01:04:11;17.77;;;6.63;;
13327;SDS011;6733;51.044;3.746;2023-07-31T01:09:28;17.10;;;7.87;;
13327;SDS011;6733;51.044;3.746;2023-07-31T01:12:01;14.27;;;6.80;;
13327;SDS011;6733;51.044;3.746;2023-07-31T01:14:28;14.73;;;6.43;;
13327;SDS011;6733;51.044;3.746;2023-07-31T01:16:55;14.43;;;6.87;;
13327;SDS011;6733;51.044;3.746;2023-07-31T01:19:22;14.47;;;6.70;;
13327;SDS011;6733;51.044;3.746;2023-07-31T01:24:36;17.07;;;6.90;;
13327;SDS011;6733;51.044;3.746;2023-07-31T01:27:32;15.60;;;6.63;;
13327;SDS011;6733;51.044;3.746;2023-07-31T01:30:05;14.63;;;6.90;;
13327;SDS011;6733;51.044;3.746;2023-07-31T01:32:40;16.10;;;6.00;;
13327;SDS011;6733;51.044;3.746;2023-07-31T01:35:08;14.27;;;6.83;;
13327;SDS011;6733;51.044;3.746;2023-07-31T01:37:35;13.70;;;6.17;;
13327;SDS011;6733;51.044;3.746;2023-07-31T01:40:01;17.33;;;6.53;;
13327;SDS011;6733;51.044;3.746;2023-07-31T01:42:27;12.80;;;6.20;;
13327;SDS011;6733;51.044;3.746;2023-07-31T01:44:53;13.47;;;6.37;;
13327;SDS011;6733;51.044;3.746;2023-07-31T01:47:20;13.60;;;6.83;;
13327;SDS011;6733;51.044;3.746;2023-07-31T01:49:46;14.63;;;6.57;;
13327;SDS011;6733;51.044;3.746;2023-07-31T01:52:12;13.40;;;6.40;;
13327;SDS011;6733;51.044;3.746;2023-07-31T01:54:38;14.63;;;6.23;;
13327;SDS011;6733;51.044;3.746;2023-07-31T01:57:04;12.67;;;6.20;;
13327;SDS011;6733;51.044;3.746;2023-07-31T01:59:31;13.80;;;6.50;;
13327;SDS011;6733;51.044;3.746;2023-07-31T02:01:57;9.03;;;6.00;;
13327;SDS011;6733;51.044;3.746;2023-07-31T02:04:23;11.27;;;5.87;;
13327;SDS011;6733;51.044;3.746;2023-07-31T02:06:49;14.77;;;5.73;;
13327;SDS011;6733;51.044;3.746;2023-07-31T02:09:15;13.90;;;6.17;;
13327;SDS011;6733;51.044;3.746;2023-07-31T02:11:41;11.43;;;6.57;;
13327;SDS011;6733;51.044;3.746;2023-07-31T02:14:08;10.53;;;6.57;;
13327;SDS011;6733;51.044;3.746;2023-07-31T02:16:34;11.27;;;5.83;;
13327;SDS011;6733;51.044;3.746;2023-07-31T02:19:00;15.13;;;6.43;;
13327;SDS011;6733;51.044;3.746;2023-07-31T02:21:26;14.60;;;6.33;;
13327;SDS011;6733;51.044;3.746;2023-07-31T02:23:53;13.07;;;6.13;;
13327;SDS011;6733;51.044;3.746;2023-07-31T02:26:20;13.87;;;5.87;;
13327;SDS011;6733;51.044;3.746;2023-07-31T02:28:46;14.93;;;5.73;;
13327;SDS011;6733;51.044;3.746;2023-07-31T02:31:12;11.70;;;5.87;;
13327;SDS011;6733;51.044;3.746;2023-07-31T02:33:38;13.50;;;6.53;;
13327;SDS011;6733;51.044;3.746;2023-07-31T02:36:29;13.93;;;6.33;;
13327;SDS011;6733;51.044;3.746;2023-07-31T02:39:20;16.53;;;5.90;;
13327;SDS011;6733;51.044;3.746;2023-07-31T02:42:12;11.83;;;5.60;;
13327;SDS011;6733;51.044;3.746;2023-07-31T02:45:03;11.13;;;5.80;;
13327;SDS011;6733;51.044;3.746;2023-07-31T02:47:55;13.20;;;5.80;;
13327;SDS011;6733;51.044;3.746;2023-07-31T02:50:47;16.70;;;6.60;;
13327;SDS011;6733;51.044;3.746;2023-07-31T02:53:38;13.33;;;6.43;;
13327;SDS011;6733;51.044;3.746;2023-07-31T02:56:29;14.50;;;6.70;;
13327;SDS011;6733;51.044;3.746;2023-07-31T02:59:20;12.47;;;6.23;;
13327;SDS011;6733;51.044;3.746;2023-07-31T03:01:47;13.93;;;6.23;;
13327;SDS011;6733;51.044;3.746;2023-07-31T03:04:13;9.10;;;5.47;;
13327;SDS011;6733;51.044;3.746;2023-07-31T03:06:39;16.00;;;5.87;;
13327;SDS011;6733;51.044;3.746;2023-07-31T03:09:05;11.03;;;6.50;;
13327;SDS011;6733;51.044;3.746;2023-07-31T03:11:31;12.43;;;6.50;;
13327;SDS011;6733;51.044;3.746;2023-07-31T03:13:58;10.20;;;5.43;;
13327;SDS011;6733;51.044;3.746;2023-07-31T03:16:24;11.53;;;6.47;;
13327;SDS011;6733;51.044;3.746;2023-07-31T03:18:50;13.60;;;6.23;;
13327;SDS011;6733;51.044;3.746;2023-07-31T03:21:16;13.73;;;5.90;;
13327;SDS011;6733;51.044;3.746;2023-07-31T03:23:42;13.37;;;6.27;;
13327;SDS011;6733;51.044;3.746;2023-07-31T03:26:09;13.60;;;6.10;;
13327;SDS011;6733;51.044;3.746;2023-07-31T03:28:35;12.53;;;6.40;;
13327;SDS011;6733;51.044;3.746;2023-07-31T03:31:01;9.90;;;6.10;;
13327;SDS011;6733;51.044;3.746;2023-07-31T03:33:27;12.30;;;6.53;;
13327;SDS011;6733;51.044;3.746;2023-07-31T03:35:54;12.60;;;6.67;;
13327;SDS011;6733;51.044;3.746;2023-07-31T03:38:20;15.30;;;6.57;;
13327;SDS011;6733;51.044;3.746;2023-07-31T03:40:46;13.83;;;6.37;;
13327;SDS011;6733;51.044;3.746;2023-07-31T03:43:12;14.73;;;6.93;;
13327;SDS011;6733;51.044;3.746;2023-07-31T03:45:38;12.80;;;7.30;;
13327;SDS011;6733;51.044;3.746;2023-07-31T03:48:05;12.13;;;6.77;;
13327;SDS011;6733;51.044;3.746;2023-07-31T03:50:31;12.77;;;6.50;;
13327;SDS011;6733;51.044;3.746;2023-07-31T03:52:57;13.63;;;6.57;;
13327;SDS011;6733;51.044;3.746;2023-07-31T03:55:23;16.23;;;7.17;;
13327;SDS011;6733;51.044;3.746;2023-07-31T03:57:49;13.00;;;6.40;;
13327;SDS011;6733;51.044;3.746;2023-07-31T04:00:15;13.87;;;7.20;;
13327;SDS011;6733;51.044;3.746;2023-07-31T04:02:42;10.87;;;6.90;;
13327;SDS011;6733;51.044;3.746;2023-07-31T04:05:08;11.57;;;6.77;;
13327;SDS011;6733;51.044;3.746;2023-07-31T04:07:35;14.70;;;6.50;;
13327;SDS011;6733;51.044;3.746;2023-07-31T04:10:01;13.83;;;7.40;;
13327;SDS011;6733;51.044;3.746;2023-07-31T04:12:27;12.03;;;6.37;;
13327;SDS011;6733;51.044;3.746;2023-07-31T04:14:53;11.50;;;6.83;;
13327;SDS011;6733;51.044;3.746;2023-07-31T04:17:19;12.43;;;6.77;;
13327;SDS011;6733;51.044;3.746;2023-07-31T04:19:46;13.57;;;6.70;;
13327;SDS011;6733;51.044;3.746;2023-07-31T04:22:12;10.93;;;5.93;;
13327;SDS011;6733;51.044;3.746;2023-07-31T04:24:38;11.27;;;5.80;;
13327;SDS011;6733;51.044;3.746;2023-07-31T04:27:04;7.80;;;5.33;;
13327;SDS011;6733;51.044;3.746;2023-07-31T04:29:30;8.03;;;5.33;;
13327;SDS011;6733;51.044;3.746;2023-07-31T04:31:56;9.33;;;6.23;;
13327;SDS011;6733;51.044;3.746;2023-07-31T04:34:23;10.93;;;6.10;;
13327;SDS011;6733;51.044;3.746;2023-07-31T04:36:49;10.10;;;5.80;;
13327;SDS011;6733;51.044;3.746;2023-07-31T04:39:15;8.60;;;4.80;;
13327;SDS011;6733;51.044;3.746;2023-07-31T04:41:42;7.83;;;5.50;;
13327;SDS011;6733;51.044;3.746;2023-07-31T04:44:08;9.07;;;4.90;;
13327;SDS011;6733;51.044;3.746;2023-07-31T04:46:36;7.83;;;5.20;;
13327;SDS011;6733;51.044;3.746;2023-07-31T04:49:03;7.47;;;4.93;;
13327;SDS011;6733;51.044;3.746;2023-07-31T04:51:29;8.03;;;5.33;;
13327;SDS011;6733;51.044;3.746;2023-07-31T04:53:56;10.53;;;5.93;;
13327;SDS011;6733;51.044;3.746;2023-07-31T04:56:22;7.23;;;4.83;;
13327;SDS011;6733;51.044;3.746;2023-07-31T04:58:48;7.27;;;4.90;;
13327;SDS011;6733;51.044;3.746;2023-07-31T05:01:14;9.97;;;5.43;;
13327;SDS011;6733;51.044;3.746;2023-07-31T05:03:40;6.43;;;4.40;;
13327;SDS011;6733;51.044;3.746;2023-07-31T05:06:06;8.73;;;5.37;;
13327;SDS011;6733;51.044;3.746;2023-07-31T05:08:33;9.07;;;5.40;;
13327;SDS011;6733;51.044;3.746;2023-07-31T05:10:59;7.17;;;5.27;;
13327;SDS011;6733;51.044;3.746;2023-07-31T05:13:25;6.87;;;5.40;;
13327;SDS011;6733;51.044;3.746;2023-07-31T05:15:51;8.23;;;5.20;;
13327;SDS011;6733;51.044;3.746;2023-07-31T05:18:17;7.90;;;5.30;;
13327;SDS011;6733;51.044;3.746;2023-07-31T05:20:43;11.67;;;5.83;;
13327;SDS011;6733;51.044;3.746;2023-07-31T05:23:10;8.80;;;5.60;;
13327;SDS011;6733;51.044;3.746;2023-07-31T05:25:36;10.63;;;6.37;;
13327;SDS011;6733;51.044;3.746;2023-07-31T05:28:02;7.80;;;5.43;;
13327;SDS011;6733;51.044;3.746;2023-07-31T05:30:29;7.33;;;5.57;;
13327;SDS011;6733;51.044;3.746;2023-07-31T05:32:56;7.90;;;5.20;;
13327;SDS011;6733;51.044;3.746;2023-07-31T05:35:22;7.70;;;5.43;;
13327;SDS011;6733;51.044;3.746;2023-07-31T05:37:49;8.93;;;5.07;;
13327;SDS011;6733;51.044;3.746;2023-07-31T05:40:15;8.47;;;4.83;;
13327;SDS011;6733;51.044;3.746;2023-07-31T05:42:41;10.37;;;5.50;;
13327;SDS011;6733;51.044;3.746;2023-07-31T05:45:07;9.77;;;5.60;;
13327;SDS011;6733;51.044;3.746;2023-07-31T05:47:34;7.83;;;5.93;;
13327;SDS011;6733;51.044;3.746;2023-07-31T05:50:00;8.73;;;5.30;;
13327;SDS011;6733;51.044;3.746;2023-07-31T05:52:26;6.37;;;5.13;;
13327;SDS011;6733;51.044;3.746;2023-07-31T05:54:54;7.70;;;5.33;;
13327;SDS011;6733;51.044;3.746;2023-07-31T05:57:21;6.73;;;5.40;;
13327;SDS011;6733;51.044;3.746;2023-07-31T05:59:47;8.73;;;5.43;;
13327;SDS011;6733;51.044;3.746;2023-07-31T06:02:13;8.33;;;5.43;;
13327;SDS011;6733;51.044;3.746;2023-07-31T06:04:39;11.87;;;5.90;;
13327;SDS011;6733;51.044;3.746;2023-07-31T06:07:05;7.07;;;5.70;;
13327;SDS011;6733;51.044;3.746;2023-07-31T06:09:31;8.43;;;5.20;;
13327;SDS011;6733;51.044;3.746;2023-07-31T06:11:58;8.10;;;5.23;;
13327;SDS011;6733;51.044;3.746;2023-07-31T06:14:24;8.73;;;5.43;;
13327;SDS011;6733;51.044;3.746;2023-07-31T06:16:50;9.13;;;5.30;;
13327;SDS011;6733;51.044;3.746;2023-07-31T06:19:16;9.17;;;5.03;;
13327;SDS011;6733;51.044;3.746;2023-07-31T06:21:42;5.80;;;4.30;;
13327;SDS011;6733;51.044;3.746;2023-07-31T06:24:09;10.53;;;5.57;;
13327;SDS011;6733;51.044;3.746;2023-07-31T06:26:37;9.70;;;5.57;;
13327;SDS011;6733;51.044;3.746;2023-07-31T06:29:03;10.03;;;4.73;;
13327;SDS011;6733;51.044;3.746;2023-07-31T06:31:29;11.73;;;5.07;;
13327;SDS011;6733;51.044;3.746;2023-07-31T06:33:56;8.93;;;5.40;;
13327;SDS011;6733;51.044;3.746;2023-07-31T06:36:22;6.03;;;4.43;;
13327;SDS011;6733;51.044;3.746;2023-07-31T06:38:48;9.87;;;5.33;;
13327;SDS011;6733;51.044;3.746;2023-07-31T06:41:14;7.77;;;4.50;;
13327;SDS011;6733;51.044;3.746;2023-07-31T06:43:41;10.53;;;5.10;;
13327;SDS011;6733;51.044;3.746;2023-07-31T06:46:07;6.47;;;4.57;;
13327;SDS011;6733;51.044;3.746;2023-07-31T06:48:34;7.93;;;5.03;;
13327;SDS011;6733;51.044;3.746;2023-07-31T06:51:00;8.83;;;5.37;;
13327;SDS011;6733;51.044;3.746;2023-07-31T06:53:27;8.90;;;4.43;;
13327;SDS011;6733;51.044;3.746;2023-07-31T06:55:54;8.83;;;5.80;;
13327;SDS011;6733;51.044;3.746;2023-07-31T06:58:20;10.17;;;5.13;;
13327;SDS011;6733;51.044;3.746;2023-07-31T07:00:46;7.83;;;5.17;;
13327;SDS011;6733;51.044;3.746;2023-07-31T07:03:14;7.10;;;4.57;;
13327;SDS011;6733;51.044;3.746;2023-07-31T07:05:41;5.60;;;4.33;;
13327;SDS011;6733;51.044;3.746;2023-07-31T07:08:08;6.37;;;4.47;;
13327;SDS011;6733;51.044;3.746;2023-07-31T07:10:34;7.60;;;4.80;;
13327;SDS011;6733;51.044;3.746;2023-07-31T07:13:00;9.17;;;4.50;;
13327;SDS011;6733;51.044;3.746;2023-07-31T07:15:26;7.10;;;4.90;;
13327;SDS011;6733;51.044;3.746;2023-07-31T07:17:52;8.97;;;5.27;;
13327;SDS011;6733;51.044;3.746;2023-07-31T07:20:18;6.57;;;4.50;;
13327;SDS011;6733;51.044;3.746;2023-07-31T07:22:45;5.87;;;4.40;;
13327;SDS011;6733;51.044;3.746;2023-07-31T07:25:12;8.27;;;5.13;;
13327;SDS011;6733;51.044;3.746;2023-07-31T07:27:38;7.20;;;4.80;;
13327;SDS011;6733;51.044;3.746;2023-07-31T07:30:04;5.93;;;4.20;;
13327;SDS011;6733;51.044;3.746;2023-07-31T07:32:31;7.90;;;4.57;;
13327;SDS011;6733;51.044;3.746;2023-07-31T07:34:57;7.10;;;4.73;;
13327;SDS011;6733;51.044;3.746;2023-07-31T07:37:23;5.37;;;4.13;;
13327;SDS011;6733;51.044;3.746;2023-07-31T07:39:49;8.63;;;4.53;;
13327;SDS011;6733;51.044;3.746;2023-07-31T07:42:16;4.77;;;3.87;;
13327;SDS011;6733;51.044;3.746;2023-07-31T07:44:42;7.00;;;4.20;;
13327;SDS011;6733;51.044;3.746;2023-07-31T07:47:08;8.40;;;4.20;;
13327;SDS011;6733;51.044;3.746;2023-07-31T07:49:34;9.47;;;3.93;;
13327;SDS011;6733;51.044;3.746;2023-07-31T07:52:01;6.27;;;4.20;;
13327;SDS011;6733;51.044;3.746;2023-07-31T07:54:28;6.47;;;3.90;;
13327;SDS011;6733;51.044;3.746;2023-07-31T07:56:54;6.00;;;3.83;;
13327;SDS011;6733;51.044;3.746;2023-07-31T07:59:20;5.43;;;3.60;;
13327;SDS011;6733;51.044;3.746;2023-07-31T08:01:46;6.33;;;4.10;;
13327;SDS011;6733;51.044;3.746;2023-07-31T08:04:13;6.83;;;3.93;;
13327;SDS011;6733;51.044;3.746;2023-07-31T08:06:39;5.80;;;3.30;;
13327;SDS011;6733;51.044;3.746;2023-07-31T08:09:05;4.60;;;3.20;;
13327;SDS011;6733;51.044;3.746;2023-07-31T08:11:32;4.43;;;2.90;;
13327;SDS011;6733;51.044;3.746;2023-07-31T08:13:58;4.75;;;3.20;;
13327;SDS011;6733;51.044;3.746;2023-07-31T08:16:24;6.60;;;3.50;;
13327;SDS011;6733;51.044;3.746;2023-07-31T08:18:51;4.70;;;3.00;;
13327;SDS011;6733;51.044;3.746;2023-07-31T08:26:15;5.47;;;3.10;;
13327;SDS011;6733;51.044;3.746;2023-07-31T09:25:23;4.17;;;3.23;;
13327;SDS011;6733;51.044;3.746;2023-07-31T09:40:24;5.50;;;3.80;;
13327;SDS011;6733;51.044;3.746;2023-07-31T09:43:01;7.30;;;4.00;;
13327;SDS011;6733;51.044;3.746;2023-07-31T09:45:29;6.13;;;3.63;;
13327;SDS011;6733;51.044;3.746;2023-07-31T09:50:23;5.25;;;3.70;;
13327;SDS011;6733;51.044;3.746;2023-07-31T11:10:16;4.87;;;4.10;;
13327;SDS011;6733;51.044;3.746;2023-07-31T11:12:44;4.10;;;3.70;;
13327;SDS011;6733;51.044;3.746;2023-07-31T11:15:12;6.10;;;4.03;;
13327;SDS011;6733;51.044;3.746;2023-07-31T11:17:39;5.03;;;3.80;;
13327;SDS011;6733;51.044;3.746;2023-07-31T11:30:02;5.20;;;3.70;;
13327;SDS011;6733;51.044;3.746;2023-07-31T11:52:11;8.25;;;4.35;;
13327;SDS011;6733;51.044;3.746;2023-07-31T11:54:39;5.83;;;4.47;;
13327;SDS011;6733;51.044;3.746;2023-07-31T11:57:06;6.40;;;4.50;;
13327;SDS011;6733;51.044;3.746;2023-07-31T11:59:33;6.70;;;4.90;;
13327;SDS011;6733;51.044;3.746;2023-07-31T12:04:26;7.33;;;4.80;;
13327;SDS011;6733;51.044;3.746;2023-07-31T12:16:54;9.85;;;5.20;;
13327;SDS011;6733;51.044;3.746;2023-07-31T12:19:21;8.70;;;5.10;;
13327;SDS011;6733;51.044;3.746;2023-07-31T12:26:45;9.23;;;5.27;;
13327;SDS011;6733;51.044;3.746;2023-07-31T12:29:12;7.45;;;5.75;;
13327;SDS011;6733;51.044;3.746;2023-07-31T12:36:43;6.80;;;5.50;;
13327;SDS011;6733;51.044;3.746;2023-07-31T12:39:09;7.87;;;5.67;;
13327;SDS011;6733;51.044;3.746;2023-07-31T12:41:36;6.75;;;5.45;;
13327;SDS011;6733;51.044;3.746;2023-07-31T12:48:55;5.90;;;4.80;;
13327;SDS011;6733;51.044;3.746;2023-07-31T12:53:47;6.90;;;4.70;;
13327;SDS011;6733;51.044;3.746;2023-07-31T12:58:39;5.50;;;4.30;;
13327;SDS011;6733;51.044;3.746;2023-07-31T13:27:54;5.10;;;3.50;;
13327;SDS011;6733;51.044;3.746;2023-07-31T13:32:47;3.90;;;3.20;;
13327;SDS011;6733;51.044;3.746;2023-07-31T13:35:13;2.80;;;2.60;;
13327;SDS011;6733;51.044;3.746;2023-07-31T13:40:06;4.20;;;2.90;;
13327;SDS011;6733;51.044;3.746;2023-07-31T13:47:25;4.00;;;3.00;;
13327;SDS011;6733;51.044;3.746;2023-07-31T14:36:10;4.60;;;3.50;;
13327;SDS011;6733;51.044;3.746;2023-07-31T15:00:39;2.50;;;2.10;;
13327;SDS011;6733;51.044;3.746;2023-07-31T15:05:31;3.20;;;2.30;;
13327;SDS011;6733;51.044;3.746;2023-07-31T15:17:42;2.50;;;2.30;;
13327;SDS011;6733;51.044;3.746;2023-07-31T15:25:01;2.60;;;2.35;;
13327;SDS011;6733;51.044;3.746;2023-07-31T15:27:27;2.65;;;2.45;;
13327;SDS011;6733;51.044;3.746;2023-07-31T15:29:54;3.00;;;2.20;;
13327;SDS011;6733;51.044;3.746;2023-07-31T15:32:21;2.50;;;2.20;;
13327;SDS011;6733;51.044;3.746;2023-07-31T15:44:34;3.30;;;2.20;;
13327;SDS011;6733;51.044;3.746;2023-07-31T15:51:53;2.60;;;1.80;;
13327;SDS011;6733;51.044;3.746;2023-07-31T15:54:19;1.90;;;1.50;;
13327;SDS011;6733;51.044;3.746;2023-07-31T15:56:46;2.63;;;1.40;;
13327;SDS011;6733;51.044;3.746;2023-07-31T15:59:12;1.90;;;1.50;;
13327;SDS011;6733;51.044;3.746;2023-07-31T16:21:06;1.40;;;1.30;;
13327;SDS011;6733;51.044;3.746;2023-07-31T16:23:33;2.70;;;1.35;;
13327;SDS011;6733;51.044;3.746;2023-07-31T16:38:09;1.90;;;1.40;;
13327;SDS011;6733;51.044;3.746;2023-07-31T17:02:30;3.15;;;1.80;;
13327;SDS011;6733;51.044;3.746;2023-07-31T17:46:22;1.50;;;1.20;;
13327;SDS011;6733;51.044;3.746;2023-07-31T18:27:56;1.70;;;1.60;;
13327;SDS011;6733;51.044;3.746;2023-07-31T18:42:37;2.70;;;1.90;;
13327;SDS011;6733;51.044;3.746;2023-07-31T19:21:41;2.50;;;2.20;;
13327;SDS011;6733;51.044;3.746;2023-07-31T19:24:07;2.80;;;2.40;;
13327;SDS011;6733;51.044;3.746;2023-07-31T19:43:36;2.60;;;2.40;;
13327;SDS011;6733;51.044;3.746;2023-07-31T19:46:02;2.70;;;2.50;;
13327;SDS011;6733;51.044;3.746;2023-07-31T19:50:54;2.50;;;2.30;;
13327;SDS011;6733;51.044;3.746;2023-07-31T19:53:20;2.40;;;2.20;;
13327;SDS011;6733;51.044;3.746;2023-07-31T19:55:47;3.55;;;2.45;;
13327;SDS011;6733;51.044;3.746;2023-07-31T19:58:13;2.30;;;2.10;;
13327;SDS011;6733;51.044;3.746;2023-07-31T20:15:22;2.45;;;2.10;;
13327;SDS011;6733;51.044;3.746;2023-07-31T20:17:49;2.60;;;2.00;;
13327;SDS011;6733;51.044;3.746;2023-07-31T20:32:27;3.55;;;2.50;;
13327;SDS011;6733;51.044;3.746;2023-07-31T20:34:53;2.50;;;2.30;;
13327;SDS011;6733;51.044;3.746;2023-07-31T20:54:24;2.60;;;2.40;;
13327;SDS011;6733;51.044;3.746;2023-07-31T21:01:44;3.10;;;2.20;;
13327;SDS011;6733;51.044;3.746;2023-07-31T21:16:24;3.40;;;2.20;;
13327;SDS011;6733;51.044;3.746;2023-07-31T21:18:51;5.70;;;2.40;;
13327;SDS011;6733;51.044;3.746;2023-07-31T21:23:45;7.40;;;2.60;;
13327;SDS011;6733;51.044;3.746;2023-07-31T21:26:12;3.40;;;2.40;;
13327;SDS011;6733;51.044;3.746;2023-07-31T21:28:38;3.50;;;2.10;;
13327;SDS011;6733;51.044;3.746;2023-07-31T21:45:45;7.30;;;2.70;;
13327;SDS011;6733;51.044;3.746;2023-07-31T21:48:12;4.70;;;2.60;;
13327;SDS011;6733;51.044;3.746;2023-07-31T21:55:30;4.65;;;2.65;;
13327;SDS011;6733;51.044;3.746;2023-07-31T22:02:48;4.95;;;2.70;;
13327;SDS011;6733;51.044;3.746;2023-07-31T22:05:14;4.10;;;2.60;;
13327;SDS011;6733;51.044;3.746;2023-07-31T22:12:33;5.60;;;3.10;;
13327;SDS011;6733;51.044;3.746;2023-07-31T22:17:25;4.60;;;3.20;;
13327;SDS011;6733;51.044;3.746;2023-07-31T22:19:51;4.50;;;3.40;;
13327;SDS011;6733;51.044;3.746;2023-07-31T22:24:44;4.73;;;3.10;;
13327;SDS011;6733;51.044;3.746;2023-07-31T22:27:12;5.13;;;3.10;;
13327;SDS011;6733;51.044;3.746;2023-07-31T22:32:08;3.90;;;3.30;;
13327;SDS011;6733;51.044;3.746;2023-07-31T22:37:01;7.15;;;3.30;;
13327;SDS011;6733;51.044;3.746;2023-07-31T22:46:46;5.60;;;3.70;;
13327;SDS011;6733;51.044;3.746;2023-07-31T22:54:04;5.10;;;4.20;;
13327;SDS011;6733;51.044;3.746;2023-07-31T22:56:31;5.50;;;4.10;;
13327;SDS011;6733;51.044;3.746;2023-07-31T23:01:23;6.20;;;3.80;;
13327;SDS011;6733;51.044;3.746;2023-07-31T23:03:50;8.30;;;3.90;;
13327;SDS011;6733;51.044;3.746;2023-07-31T23:13:36;7.60;;;3.90;;
13327;SDS011;6733;51.044;3.746;2023-07-31T23:16:02;6.20;;;3.85;;
13327;SDS011;6733;51.044;3.746;2023-07-31T23:18:29;8.73;;;4.00;;
13327;SDS011;6733;51.044;3.746;2023-07-31T23:23:24;7.30;;;4.30;;
13327;SDS011;6733;51.044;3.746;2023-07-31T23:28:17;11.70;;;5.30;;
13327;SDS011;6733;51.044;3.746;2023-07-31T23:33:11;7.20;;;4.80;;
13327;SDS011;6733;51.044;3.746;2023-07-31T23:35:38;6.00;;;4.70;;
